Maersk Nimes — VRFO7 — position and weather

sailwx.info

Track history (hours):
 
Tides and Currents Weather Stations Pressure Air Temp Water Temp Dewpoint Dewpoint Depression Visibility Wind Speed Wind Dir Waves Ship Positions

Maersk Nimes

Last reported at 2014-Dec-22 01:15 UTC. Time now 2014-Dec-22 02:02 UTC.
Position N 59°53' E 030°12'.

Length 210 m; draft 9.3 m.

Type: Cargo ship. MMSI: 477559200.

Date/timePositionNaut miles runAvg speedWind from/ knotsBaromVisibWave heightAir tempDewpointWater temp
2014-Dec-22 01:15N 59°53' E 030°12'0 0.0
2014-Dec-22 00:15N 59°53' E 030°12'0 0.0
2014-Dec-21 23:27N 59°53' E 030°12'0 0.0
2014-Dec-21 21:04N 59°53' E 030°12'0 0.0
2014-Dec-21 20:31N 59°53' E 030°12'0 0.0
2014-Dec-21 19:22N 59°53' E 030°12'0 0.0
2014-Dec-21 18:31N 59°53' E 030°12'0 0.0
2014-Dec-21 17:31N 59°53' E 030°12'0 0.0
2014-Dec-21 16:31N 59°53' E 030°12'0 0.0
2014-Dec-21 15:31N 59°53' E 030°12'0 0.0
2014-Dec-21 14:31N 59°53' E 030°12'0 0.0
2014-Dec-21 13:07N 59°53' E 030°12'0 0.0
2014-Dec-21 12:31N 59°53' E 030°12'0 0.0
2014-Dec-21 11:31N 59°53' E 030°12'0 0.0
2014-Dec-21 10:31N 59°53' E 030°12'0 0.0
2014-Dec-21 09:31N 59°53' E 030°12'0 0.0
2014-Dec-21 08:33N 59°53' E 030°12'1 1.1
2014-Dec-21 07:33N 59°54' E 030°14'0 0.0
2014-Dec-21 06:30N 59°54' E 030°14'0 0.0
2014-Dec-21 05:33N 59°54' E 030°14'0 0.0
2014-Dec-21 04:33N 59°54' E 030°14'0 0.0
2014-Dec-21 03:33N 59°54' E 030°14'0 0.0
2014-Dec-21 02:30N 59°54' E 030°14'0 0.0
2014-Dec-21 01:33N 59°54' E 030°14'0 0.0
2014-Dec-21 00:30N 59°54' E 030°14'0 0.0
2014-Dec-20 23:33N 59°54' E 030°14'0 0.0
2014-Dec-20 22:30N 59°54' E 030°14'0 0.0
2014-Dec-20 21:30N 59°54' E 030°14'0 0.0
2014-Dec-20 20:33N 59°54' E 030°14'0 0.0
2014-Dec-20 19:33N 59°54' E 030°14'0 0.0
2014-Dec-20 18:33N 59°54' E 030°14'0 0.0
2014-Dec-20 17:33N 59°54' E 030°14'0 0.0
2014-Dec-20 16:30N 59°54' E 030°14'0 0.0
2014-Dec-20 15:33N 59°54' E 030°14'0 0.5
2014-Dec-20 14:33N 59°53' E 030°13'8410.2
2014-Dec-20 06:19N 60°05' E 027°26'1013.0
2014-Dec-20 05:32N 59°59' E 027°09'1212.4
2014-Dec-20 04:33N 59°59' E 026°45'1313.0
2014-Dec-20 03:33N 59°56' E 026°20'1612.9
2014-Dec-20 02:17N 59°52' E 025°48'2513.0
2014-Dec-20 00:21N 59°46' E 024°60'1013.0
2014-Dec-19 23:33N 59°44' E 024°39'1312.7
2014-Dec-19 22:33N 59°42' E 024°14'37416.2
2014-Dec-18 23:25N 55°37' E 015°26'1415.9
2014-Dec-18 22:33N 55°31' E 015°05'1717.0
2014-Dec-18 21:33N 55°23' E 014°38'1717.2
2014-Dec-18 20:33N 55°09' E 014°21'1514.7
2014-Dec-18 19:33N 54°59' E 014°01'1717.0
2014-Dec-18 18:33N 54°54' E 013°33'4715.1
2014-Dec-18 15:28N 54°36' E 012°18'8 9.0
2014-Dec-18 14:33N 54°28' E 012°13'8 8.4
2014-Dec-18 13:33N 54°25' E 012°00'1312.9
2014-Dec-18 12:33N 54°27' E 011°38'1313.3
2014-Dec-18 11:33N 54°33' E 011°18'1313.0
2014-Dec-18 10:33N 54°39' E 010°59'1111.3
2014-Dec-18 09:33N 54°50' E 010°50'11011.0
2014-Dec-17 23:33N 56°36' E 011°41'1111.4
2014-Dec-17 22:33N 56°46' E 011°50'1212.0
2014-Dec-17 21:32N 56°57' E 011°43'1211.7
2014-Dec-17 20:33N 57°08' E 011°36'1211.9
2014-Dec-17 19:33N 57°19' E 011°28'1212.0
2014-Dec-17 18:33N 57°30' E 011°17'1211.7
2014-Dec-17 17:33N 57°38' E 011°02'1212.1
2014-Dec-17 16:33N 57°46' E 010°45'1110.8
2014-Dec-17 15:33N 57°46' E 010°25'1312.6
2014-Dec-17 14:33N 57°45' E 010°01'5012.6
2014-Dec-17 10:33N 57°24' E 008°35'1716.8
2014-Dec-17 09:33N 57°14' E 008°10'10815.3
2014-Dec-17 02:30N 55°38' E 006°44'1415.0
2014-Dec-17 01:33N 55°24' E 006°41'1414.1
2014-Dec-17 00:33N 55°10' E 006°48'1414.3
2014-Dec-16 23:33N 54°57' E 006°56'1414.5
2014-Dec-16 22:33N 54°43' E 007°06'1514.8
2014-Dec-16 21:34N 54°29' E 007°16'1515.0
2014-Dec-16 20:33N 54°16' E 007°26'1514.7
2014-Dec-16 19:33N 54°03' E 007°38'1312.9
2014-Dec-16 18:33N 53°53' E 007°51'1212.3
2014-Dec-16 17:33N 53°47' E 008°10'1413.7
2014-Dec-16 16:33N 53°38' E 008°27'3 3.4
2014-Dec-16 15:33N 53°35' E 008°31'0 0.0
2014-Dec-16 14:33N 53°36' E 008°31'0 0.0
2014-Dec-16 13:33N 53°35' E 008°31'0 0.0
2014-Dec-16 12:33N 53°35' E 008°31'0 0.0
2014-Dec-16 11:33N 53°36' E 008°31'0 0.0
2014-Dec-16 10:33N 53°36' E 008°31'0 0.0
2014-Dec-16 09:33N 53°35' E 008°31'0 0.0
2014-Dec-16 08:33N 53°35' E 008°31'0 0.0
2014-Dec-16 07:33N 53°35' E 008°31'0 0.0
2014-Dec-16 06:33N 53°35' E 008°31'0 0.1
2014-Dec-16 05:33N 53°35' E 008°31'0 0.1
2014-Dec-16 04:33N 53°36' E 008°31'0 0.0
2014-Dec-16 03:32N 53°35' E 008°31'0 0.0
2014-Dec-16 02:33N 53°36' E 008°31'0 0.0
2014-Dec-16 01:33N 53°36' E 008°31'0 0.0
2014-Dec-16 00:31N 53°35' E 008°31'0 0.0
2014-Dec-15 23:33N 53°36' E 008°31'0 0.0
2014-Dec-15 22:33N 53°35' E 008°31'0 0.0
2014-Dec-15 21:33N 53°35' E 008°31'0 0.0
2014-Dec-15 20:33N 53°35' E 008°31'0 0.0
2014-Dec-15 19:33N 53°35' E 008°31'0 0.0
2014-Dec-15 18:33N 53°35' E 008°31'0 0.0
2014-Dec-15 17:33N 53°35' E 008°31'0 0.0
2014-Dec-15 16:33N 53°35' E 008°31'0 0.0
2014-Dec-15 15:33N 53°35' E 008°31'0 0.3
2014-Dec-15 14:33N 53°36' E 008°31'1515.1
2014-Dec-15 13:33N 53°45' E 008°12'1414.2
2014-Dec-15 12:33N 53°54' E 007°52'0 0.1
2014-Dec-15 11:33N 53°54' E 007°52'0 0.0
2014-Dec-15 10:33N 53°54' E 007°52'0 0.0
2014-Dec-15 09:33N 53°54' E 007°52'0 0.0
2014-Dec-15 08:33N 53°54' E 007°52'0 0.0
2014-Dec-15 07:33N 53°54' E 007°52'0 0.0
2014-Dec-15 06:33N 53°54' E 007°52'0 0.0
2014-Dec-15 05:33N 53°54' E 007°52'0 0.0
2014-Dec-15 04:33N 53°54' E 007°52'0 0.0
2014-Dec-15 03:33N 53°54' E 007°52'0 0.0
2014-Dec-15 02:33N 53°54' E 007°52'0 0.0
2014-Dec-15 01:33N 53°54' E 007°52'0 0.0
2014-Dec-15 00:33N 53°54' E 007°52'0 0.0
2014-Dec-14 23:33N 53°54' E 007°52'0 0.0
2014-Dec-14 22:33N 53°54' E 007°52'0 0.0
2014-Dec-14 21:33N 53°54' E 007°52'0 0.0
2014-Dec-14 20:33N 53°54' E 007°52'0 0.0
2014-Dec-14 19:33N 53°54' E 007°52'0 0.0
2014-Dec-14 18:33N 53°54' E 007°52'0 0.0
2014-Dec-14 17:33N 53°54' E 007°52'0 0.0
2014-Dec-14 16:33N 53°54' E 007°52'0 0.0
2014-Dec-14 15:33N 53°54' E 007°52'0 0.0
2014-Dec-14 14:33N 53°54' E 007°52'0 0.0
2014-Dec-14 13:33N 53°54' E 007°52'0 0.0
2014-Dec-14 12:33N 53°54' E 007°52'0 0.0
2014-Dec-14 11:33N 53°54' E 007°52'0 0.1
2014-Dec-14 10:33N 53°54' E 007°52'0 0.0
2014-Dec-14 09:33N 53°54' E 007°52'0 0.0
2014-Dec-14 08:33N 53°54' E 007°52'0 0.3
2014-Dec-14 07:33N 53°54' E 007°52'1111.4
2014-Dec-14 06:34N 53°48' E 008°08'1515.1
2014-Dec-14 05:33N 53°38' E 008°27'4 3.7
2014-Dec-14 04:32N 53°35' E 008°31'0 0.0
2014-Dec-14 03:32N 53°35' E 008°32'0 0.0
2014-Dec-14 02:32N 53°35' E 008°31'0 0.0
2014-Dec-14 01:32N 53°35' E 008°31'0 0.0
2014-Dec-14 00:32N 53°35' E 008°31'0 0.0
2014-Dec-13 23:32N 53°35' E 008°32'0 0.0
2014-Dec-13 22:32N 53°35' E 008°31'0 0.0
2014-Dec-13 21:32N 53°35' E 008°31'0 0.0
2014-Dec-13 20:32N 53°35' E 008°31'0 0.0
2014-Dec-13 19:32N 53°35' E 008°31'0 0.0
2014-Dec-13 18:32N 53°35' E 008°32'0 0.0
2014-Dec-13 17:32N 53°35' E 008°31'0 0.0
2014-Dec-13 16:32N 53°35' E 008°31'0 0.0
2014-Dec-13 15:32N 53°35' E 008°31'0 0.0
2014-Dec-13 14:32N 53°35' E 008°31'0 0.0
2014-Dec-13 13:32N 53°35' E 008°31'0 0.0
2014-Dec-13 12:32N 53°35' E 008°32'0 0.0
2014-Dec-13 11:32N 53°35' E 008°31'0 0.0
2014-Dec-13 10:32N 53°35' E 008°31'0 0.0
2014-Dec-13 09:32N 53°35' E 008°31'0 0.0
2014-Dec-13 08:32N 53°35' E 008°31'0 0.0
2014-Dec-13 07:32N 53°35' E 008°31'0 0.0
2014-Dec-13 06:32N 53°35' E 008°31'0 0.0
2014-Dec-13 05:32N 53°35' E 008°32'0 0.0
2014-Dec-13 04:32N 53°35' E 008°31'3 2.7
2014-Dec-13 03:33N 53°37' E 008°28'1616.3
2014-Dec-13 02:33N 53°48' E 008°08'1716.6
2014-Dec-13 01:34N 53°54' E 007°42'1110.5
2014-Dec-13 00:33N 54°03' E 007°33'8 7.7
2014-Dec-12 23:32N 54°10' E 007°27'6 6.0
2014-Dec-12 22:33N 54°16' E 007°23'1211.6
2014-Dec-12 21:33N 54°27' E 007°16'1111.3
2014-Dec-12 20:33N 54°37' E 007°08'1111.4
2014-Dec-12 19:33N 54°48' E 007°02'1211.5
2014-Dec-12 18:33N 54°59' E 006°55'1111.3
2014-Dec-12 17:33N 55°09' E 006°47'1211.7
2014-Dec-12 16:33N 55°20' E 006°41'1515.4
2014-Dec-12 15:34N 55°36' E 006°40'9315.0
2014-Dec-12 09:25N 57°01' E 007°46'7710.6
2014-Dec-12 02:07N 57°45' E 009°44'5 9.6
2014-Dec-12 01:33N 57°47' E 009°54'  
Track history (hours):
 
Tides and Currents Weather Stations Pressure Air Temp Water Temp Dewpoint Dewpoint Depression Visibility Wind Speed Wind Dir Waves Ship Positions

Maersk Nimes

Last reported at 2014-Dec-22 01:15 UTC. Time now 2014-Dec-22 02:02 UTC.
Position N 59°53' E 030°12'.

Length 210 m; draft 9.3 m.

Type: Cargo ship. MMSI: 477559200.

Date/timePositionNaut miles runAvg speedWind from/ knotsBaromVisibWave heightAir tempDewpointWater temp
2014-Dec-22 01:15N 59°53' E 030°12'0 0.0
2014-Dec-22 00:15N 59°53' E 030°12'0 0.0
2014-Dec-21 23:27N 59°53' E 030°12'0 0.0
2014-Dec-21 21:04N 59°53' E 030°12'0 0.0
2014-Dec-21 20:31N 59°53' E 030°12'0 0.0
2014-Dec-21 19:22N 59°53' E 030°12'0 0.0
2014-Dec-21 18:31N 59°53' E 030°12'0 0.0
2014-Dec-21 17:31N 59°53' E 030°12'0 0.0
2014-Dec-21 16:31N 59°53' E 030°12'0 0.0
2014-Dec-21 15:31N 59°53' E 030°12'0 0.0
2014-Dec-21 14:31N 59°53' E 030°12'0 0.0
2014-Dec-21 13:07N 59°53' E 030°12'0 0.0
2014-Dec-21 12:31N 59°53' E 030°12'0 0.0
2014-Dec-21 11:31N 59°53' E 030°12'0 0.0
2014-Dec-21 10:31N 59°53' E 030°12'0 0.0
2014-Dec-21 09:31N 59°53' E 030°12'0 0.0
2014-Dec-21 08:33N 59°53' E 030°12'1 1.1
2014-Dec-21 07:33N 59°54' E 030°14'0 0.0
2014-Dec-21 06:30N 59°54' E 030°14'0 0.0
2014-Dec-21 05:33N 59°54' E 030°14'0 0.0
2014-Dec-21 04:33N 59°54' E 030°14'0 0.0
2014-Dec-21 03:33N 59°54' E 030°14'0 0.0
2014-Dec-21 02:30N 59°54' E 030°14'0 0.0
2014-Dec-21 01:33N 59°54' E 030°14'0 0.0
2014-Dec-21 00:30N 59°54' E 030°14'0 0.0
2014-Dec-20 23:33N 59°54' E 030°14'0 0.0
2014-Dec-20 22:30N 59°54' E 030°14'0 0.0
2014-Dec-20 21:30N 59°54' E 030°14'0 0.0
2014-Dec-20 20:33N 59°54' E 030°14'0 0.0
2014-Dec-20 19:33N 59°54' E 030°14'0 0.0
2014-Dec-20 18:33N 59°54' E 030°14'0 0.0
2014-Dec-20 17:33N 59°54' E 030°14'0 0.0
2014-Dec-20 16:30N 59°54' E 030°14'0 0.0
2014-Dec-20 15:33N 59°54' E 030°14'0 0.5
2014-Dec-20 14:33N 59°53' E 030°13'8410.2
2014-Dec-20 06:19N 60°05' E 027°26'1013.0
2014-Dec-20 05:32N 59°59' E 027°09'1212.4
2014-Dec-20 04:33N 59°59' E 026°45'1313.0
2014-Dec-20 03:33N 59°56' E 026°20'1612.9
2014-Dec-20 02:17N 59°52' E 025°48'2513.0
2014-Dec-20 00:21N 59°46' E 024°60'1013.0
2014-Dec-19 23:33N 59°44' E 024°39'1312.7
2014-Dec-19 22:33N 59°42' E 024°14'37416.2
2014-Dec-18 23:25N 55°37' E 015°26'1415.9
2014-Dec-18 22:33N 55°31' E 015°05'1717.0
2014-Dec-18 21:33N 55°23' E 014°38'1717.2
2014-Dec-18 20:33N 55°09' E 014°21'1514.7
2014-Dec-18 19:33N 54°59' E 014°01'1717.0
2014-Dec-18 18:33N 54°54' E 013°33'4715.1
2014-Dec-18 15:28N 54°36' E 012°18'8 9.0
2014-Dec-18 14:33N 54°28' E 012°13'8 8.4
2014-Dec-18 13:33N 54°25' E 012°00'1312.9
2014-Dec-18 12:33N 54°27' E 011°38'1313.3
2014-Dec-18 11:33N 54°33' E 011°18'1313.0
2014-Dec-18 10:33N 54°39' E 010°59'1111.3
2014-Dec-18 09:33N 54°50' E 010°50'11011.0
2014-Dec-17 23:33N 56°36' E 011°41'1111.4
2014-Dec-17 22:33N 56°46' E 011°50'1212.0
2014-Dec-17 21:32N 56°57' E 011°43'1211.7
2014-Dec-17 20:33N 57°08' E 011°36'1211.9
2014-Dec-17 19:33N 57°19' E 011°28'1212.0
2014-Dec-17 18:33N 57°30' E 011°17'1211.7
2014-Dec-17 17:33N 57°38' E 011°02'1212.1
2014-Dec-17 16:33N 57°46' E 010°45'1110.8
2014-Dec-17 15:33N 57°46' E 010°25'1312.6
2014-Dec-17 14:33N 57°45' E 010°01'5012.6
2014-Dec-17 10:33N 57°24' E 008°35'1716.8
2014-Dec-17 09:33N 57°14' E 008°10'10815.3
2014-Dec-17 02:30N 55°38' E 006°44'1415.0
2014-Dec-17 01:33N 55°24' E 006°41'1414.1
2014-Dec-17 00:33N 55°10' E 006°48'1414.3
2014-Dec-16 23:33N 54°57' E 006°56'1414.5
2014-Dec-16 22:33N 54°43' E 007°06'1514.8
2014-Dec-16 21:34N 54°29' E 007°16'1515.0
2014-Dec-16 20:33N 54°16' E 007°26'1514.7
2014-Dec-16 19:33N 54°03' E 007°38'1312.9
2014-Dec-16 18:33N 53°53' E 007°51'1212.3
2014-Dec-16 17:33N 53°47' E 008°10'1413.7
2014-Dec-16 16:33N 53°38' E 008°27'3 3.4
2014-Dec-16 15:33N 53°35' E 008°31'0 0.0
2014-Dec-16 14:33N 53°36' E 008°31'0 0.0
2014-Dec-16 13:33N 53°35' E 008°31'0 0.0
2014-Dec-16 12:33N 53°35' E 008°31'0 0.0
2014-Dec-16 11:33N 53°36' E 008°31'0 0.0
2014-Dec-16 10:33N 53°36' E 008°31'0 0.0
2014-Dec-16 09:33N 53°35' E 008°31'0 0.0
2014-Dec-16 08:33N 53°35' E 008°31'0 0.0
2014-Dec-16 07:33N 53°35' E 008°31'0 0.0
2014-Dec-16 06:33N 53°35' E 008°31'0 0.1
2014-Dec-16 05:33N 53°35' E 008°31'0 0.1
2014-Dec-16 04:33N 53°36' E 008°31'0 0.0
2014-Dec-16 03:32N 53°35' E 008°31'0 0.0
2014-Dec-16 02:33N 53°36' E 008°31'0 0.0
2014-Dec-16 01:33N 53°36' E 008°31'0 0.0
2014-Dec-16 00:31N 53°35' E 008°31'0 0.0
2014-Dec-15 23:33N 53°36' E 008°31'0 0.0
2014-Dec-15 22:33N 53°35' E 008°31'0 0.0
2014-Dec-15 21:33N 53°35' E 008°31'0 0.0
2014-Dec-15 20:33N 53°35' E 008°31'0 0.0
2014-Dec-15 19:33N 53°35' E 008°31'0 0.0
2014-Dec-15 18:33N 53°35' E 008°31'0 0.0
2014-Dec-15 17:33N 53°35' E 008°31'0 0.0
2014-Dec-15 16:33N 53°35' E 008°31'0 0.0
2014-Dec-15 15:33N 53°35' E 008°31'0 0.3
2014-Dec-15 14:33N 53°36' E 008°31'1515.1
2014-Dec-15 13:33N 53°45' E 008°12'1414.2
2014-Dec-15 12:33N 53°54' E 007°52'0 0.1
2014-Dec-15 11:33N 53°54' E 007°52'0 0.0
2014-Dec-15 10:33N 53°54' E 007°52'0 0.0
2014-Dec-15 09:33N 53°54' E 007°52'0 0.0
2014-Dec-15 08:33N 53°54' E 007°52'0 0.0
2014-Dec-15 07:33N 53°54' E 007°52'0 0.0
2014-Dec-15 06:33N 53°54' E 007°52'0 0.0
2014-Dec-15 05:33N 53°54' E 007°52'0 0.0
2014-Dec-15 04:33N 53°54' E 007°52'0 0.0
2014-Dec-15 03:33N 53°54' E 007°52'0 0.0
2014-Dec-15 02:33N 53°54' E 007°52'0 0.0
2014-Dec-15 01:33N 53°54' E 007°52'0 0.0
2014-Dec-15 00:33N 53°54' E 007°52'0 0.0
2014-Dec-14 23:33N 53°54' E 007°52'0 0.0
2014-Dec-14 22:33N 53°54' E 007°52'0 0.0
2014-Dec-14 21:33N 53°54' E 007°52'0 0.0
2014-Dec-14 20:33N 53°54' E 007°52'0 0.0
2014-Dec-14 19:33N 53°54' E 007°52'0 0.0
2014-Dec-14 18:33N 53°54' E 007°52'0 0.0
2014-Dec-14 17:33N 53°54' E 007°52'0 0.0
2014-Dec-14 16:33N 53°54' E 007°52'0 0.0
2014-Dec-14 15:33N 53°54' E 007°52'0 0.0
2014-Dec-14 14:33N 53°54' E 007°52'0 0.0
2014-Dec-14 13:33N 53°54' E 007°52'0 0.0
2014-Dec-14 12:33N 53°54' E 007°52'0 0.0
2014-Dec-14 11:33N 53°54' E 007°52'0 0.1
2014-Dec-14 10:33N 53°54' E 007°52'0 0.0
2014-Dec-14 09:33N 53°54' E 007°52'0 0.0
2014-Dec-14 08:33N 53°54' E 007°52'0 0.3
2014-Dec-14 07:33N 53°54' E 007°52'1111.4
2014-Dec-14 06:34N 53°48' E 008°08'1515.1
2014-Dec-14 05:33N 53°38' E 008°27'4 3.7
2014-Dec-14 04:32N 53°35' E 008°31'0 0.0
2014-Dec-14 03:32N 53°35' E 008°32'0 0.0
2014-Dec-14 02:32N 53°35' E 008°31'0 0.0
2014-Dec-14 01:32N 53°35' E 008°31'0 0.0
2014-Dec-14 00:32N 53°35' E 008°31'0 0.0
2014-Dec-13 23:32N 53°35' E 008°32'0 0.0
2014-Dec-13 22:32N 53°35' E 008°31'0 0.0
2014-Dec-13 21:32N 53°35' E 008°31'0 0.0
2014-Dec-13 20:32N 53°35' E 008°31'0 0.0
2014-Dec-13 19:32N 53°35' E 008°31'0 0.0
2014-Dec-13 18:32N 53°35' E 008°32'0 0.0
2014-Dec-13 17:32N 53°35' E 008°31'0 0.0
2014-Dec-13 16:32N 53°35' E 008°31'0 0.0
2014-Dec-13 15:32N 53°35' E 008°31'0 0.0
2014-Dec-13 14:32N 53°35' E 008°31'0 0.0
2014-Dec-13 13:32N 53°35' E 008°31'0 0.0
2014-Dec-13 12:32N 53°35' E 008°32'0 0.0
2014-Dec-13 11:32N 53°35' E 008°31'0 0.0
2014-Dec-13 10:32N 53°35' E 008°31'0 0.0
2014-Dec-13 09:32N 53°35' E 008°31'0 0.0
2014-Dec-13 08:32N 53°35' E 008°31'0 0.0
2014-Dec-13 07:32N 53°35' E 008°31'0 0.0
2014-Dec-13 06:32N 53°35' E 008°31'0 0.0
2014-Dec-13 05:32N 53°35' E 008°32'0 0.0
2014-Dec-13 04:32N 53°35' E 008°31'3 2.7
2014-Dec-13 03:33N 53°37' E 008°28'1616.3
2014-Dec-13 02:33N 53°48' E 008°08'1716.6
2014-Dec-13 01:34N 53°54' E 007°42'1110.5
2014-Dec-13 00:33N 54°03' E 007°33'8 7.7
2014-Dec-12 23:32N 54°10' E 007°27'6 6.0
2014-Dec-12 22:33N 54°16' E 007°23'1211.6
2014-Dec-12 21:33N 54°27' E 007°16'1111.3
2014-Dec-12 20:33N 54°37' E 007°08'1111.4
2014-Dec-12 19:33N 54°48' E 007°02'1211.5
2014-Dec-12 18:33N 54°59' E 006°55'1111.3
2014-Dec-12 17:33N 55°09' E 006°47'1211.7
2014-Dec-12 16:33N 55°20' E 006°41'1515.4
2014-Dec-12 15:34N 55°36' E 006°40'9315.0
2014-Dec-12 09:25N 57°01' E 007°46'7710.6
2014-Dec-12 02:07N 57°45' E 009°44'5 9.6
2014-Dec-12 01:33N 57°47' E 009°54'  

Dump ship's entire track history